Freedom of the Seas — C6UZ7 — position and weather

sailwx.info

Track history (hours):
 
Tides and Currents Weather Stations Pressure Air Temp Water Temp Dewpoint Dewpoint Depression Visibility Wind Speed Wind Dir Waves Ship Positions

Freedom of the Seas

Last reported at 2017-May-28 06:30 UTC. Time now 2017-May-28 06:44 UTC.
Position N 41°22' E 002°11'.

Length 339 m; draft 9 m.

Type: Passenger vessel. MMSI: 309906000.

Date/timePositionNaut miles runAvg speedWind from/ knotsBaromVisibWave heightAir tempDewpointWater temp
2017-May-28 06:30N 41°22' E 002°11'0 0.0
2017-May-28 05:06N 41°22' E 002°11'0 0.0
2017-May-28 04:54N 41°22' E 002°11'0 0.0
2017-May-28 03:54N 41°22' E 002°11'0 0.6
2017-May-28 03:30N 41°21' E 002°10'2 2.9
2017-May-28 02:58N 41°20' E 002°10'4 8.7
2017-May-28 02:30N 41°16' E 002°13'611.7
2017-May-28 02:00N 41°16' E 002°20'612.6
2017-May-28 01:30N 41°16' E 002°29'713.5
2017-May-28 01:00N 41°16' E 002°38'714.0
2017-May-28 00:30N 41°16' E 002°47'714.4
2017-May-28 00:00N 41°16' E 002°57'714.4
2017-May-27 23:30N 41°16' E 003°06'714.5
2017-May-27 23:00N 41°16' E 003°16'714.4
2017-May-27 22:30N 41°17' E 003°25'714.4
2017-May-27 22:00N 41°17' E 003°35'714.3
2017-May-27 21:29N 41°17' E 003°45'714.2
2017-May-27 20:59N 41°17' E 003°54'914.7
2017-May-27 20:24N 41°17' E 004°06'2817.6
2017-May-27 18:49N 41°17' E 004°43'617.5
2017-May-27 18:30N 41°17' E 004°50'1117.4
2017-May-27 17:51N 41°17' E 005°05'617.4
2017-May-27 17:29N 41°17' E 005°14'1017.4
2017-May-27 16:55N 41°17' E 005°27'917.4
2017-May-27 16:23N 41°17' E 005°39'10717.2
2017-May-27 10:10N 41°18' E 008°02'317.4
2017-May-27 09:59N 41°18' E 008°06'1117.4
2017-May-27 09:21N 41°18' E 008°21'617.4
2017-May-27 09:00N 41°18' E 008°29'917.6
2017-May-27 08:30N 41°18' E 008°41'917.7
2017-May-27 07:58N 41°18' E 008°53'917.8
2017-May-27 07:27N 41°18' E 009°05'6815.3
2017-May-27 03:00N 41°12' E 010°36'68 1.4 260 / 91017.010.8 20.016.719.0
2017-May-25 03:23N 42°03' E 011°37'1412.6
2017-May-25 02:15N 42°06' E 011°18'617.1
2017-May-25 01:54N 42°07' E 011°10'920.7
2017-May-25 01:28N 42°10' E 010°59'1020.5
2017-May-25 01:00N 42°15' E 010°47'1120.4
2017-May-25 00:26N 42°22' E 010°35'920.4
2017-May-25 00:00N 42°28' E 010°27'1120.5
2017-May-24 23:28N 42°35' E 010°15'1020.2
2017-May-24 22:59N 42°41' E 010°05'919.7
2017-May-24 22:30N 42°46' E 009°54'1119.8
2017-May-24 21:56N 42°52' E 009°40'918.7
2017-May-24 21:26N 43°00' E 009°36'819.8
2017-May-24 21:00N 43°08' E 009°33'1019.8
2017-May-24 20:30N 43°18' E 009°30'1020.0
2017-May-24 20:01N 43°28' E 009°33'1019.7
2017-May-24 19:31N 43°37' E 009°38'1019.9
2017-May-24 19:01N 43°46' E 009°45'1020.0
2017-May-24 18:31N 43°55' E 009°51'816.0
2017-May-24 18:01N 44°03' E 009°52'1 1.6
2017-May-24 17:31N 44°03' E 009°52'3 6.2
2017-May-24 17:00N 44°06' E 009°50'0 0.1
2017-May-24 16:29N 44°06' E 009°50'0 0.0
2017-May-24 15:53N 44°06' E 009°50'0 0.0
2017-May-24 15:29N 44°06' E 009°50'0 0.0
2017-May-24 14:59N 44°06' E 009°50'0 0.0
2017-May-24 14:29N 44°06' E 009°50'0 0.0
2017-May-24 13:29N 44°06' E 009°50'0 0.0
2017-May-24 12:59N 44°06' E 009°50'0 0.0
2017-May-24 12:29N 44°06' E 009°50'0 0.0
2017-May-24 11:59N 44°06' E 009°50'0 0.0
2017-May-24 11:29N 44°06' E 009°50'0 0.0
2017-May-24 10:59N 44°06' E 009°50'0 0.0
2017-May-24 10:29N 44°06' E 009°50'0 0.0
2017-May-24 09:59N 44°06' E 009°50'0 0.0
2017-May-24 09:29N 44°06' E 009°50'0 0.0
2017-May-24 08:59N 44°06' E 009°50'0 0.0
2017-May-24 08:29N 44°06' E 009°50'0 0.0
2017-May-24 07:59N 44°06' E 009°50'0 0.0
2017-May-24 07:29N 44°06' E 009°50'0 0.0
2017-May-24 06:59N 44°06' E 009°50'0 0.0
2017-May-24 06:29N 44°06' E 009°50'0 0.0
2017-May-24 05:59N 44°06' E 009°50'0 0.0
2017-May-24 05:29N 44°06' E 009°50'0 0.0
2017-May-24 05:01N 44°06' E 009°50'2100.2
2017-May-24 05:00N 44°06' E 009°48'2 3.8 060 / 21019.010.8 16.014.319.0
2017-May-24 04:30N 44°06' E 009°51'3 6.7
2017-May-24 04:01N 44°03' E 009°52'4 8.6
2017-May-24 03:30N 43°59' E 009°55'612.4
2017-May-24 03:01N 43°58' E 009°47'611.5
2017-May-24 02:31N 43°55' E 009°40'611.7
2017-May-24 02:01N 43°53' E 009°32'612.0
2017-May-24 01:31N 43°51' E 009°25'612.1
2017-May-24 01:00N 43°49' E 009°17'611.7
2017-May-24 00:31N 43°47' E 009°09'611.6
2017-May-24 00:00N 43°45' E 009°01'612.0
2017-May-23 23:31N 43°44' E 008°53'611.8
2017-May-23 23:01N 43°42' E 008°46'611.7
2017-May-23 22:30N 43°40' E 008°38'611.6
2017-May-23 22:01N 43°39' E 008°30'611.9
2017-May-23 21:31N 43°37' E 008°22'611.8
2017-May-23 21:01N 43°36' E 008°14'611.8
2017-May-23 20:31N 43°35' E 008°06'611.8
2017-May-23 20:01N 43°34' E 007°58'611.7
2017-May-23 19:30N 43°32' E 007°50'611.4
2017-May-23 19:01N 43°32' E 007°43'611.7
2017-May-23 18:31N 43°34' E 007°35'611.9
2017-May-23 18:00N 43°36' E 007°28'612.0
2017-May-23 17:31N 43°39' E 007°20'3 0.3
2017-May-23 06:00N 43°36' E 007°18'5 5.8 110 / 41018.010.8 19.015.719.0
2017-May-23 05:04N 43°41' E 007°19'0 0.3
2017-May-23 04:58N 43°41' E 007°19'1 2.2
2017-May-23 04:30N 43°40' E 007°18'511.2
2017-May-23 04:00N 43°35' E 007°17'612.2
2017-May-23 03:30N 43°29' E 007°16'612.2
2017-May-23 03:00N 43°23' E 007°14'612.1
2017-May-23 02:30N 43°17' E 007°13'612.1
2017-May-23 02:00N 43°12' E 007°08'612.4
2017-May-23 01:30N 43°07' E 007°03'612.3
2017-May-23 01:00N 43°02' E 006°58'612.1
2017-May-23 00:30N 42°57' E 006°53'611.9
2017-May-22 23:59N 42°53' E 006°47'611.9
2017-May-22 23:28N 42°48' E 006°41'612.2
2017-May-22 23:00N 42°46' E 006°34'612.2
2017-May-22 22:30N 42°44' E 006°27'612.2
2017-May-22 22:00N 42°44' E 006°18'612.2
2017-May-22 21:30N 42°45' E 006°10'612.3
2017-May-22 21:00N 42°45' E 006°02'612.3
2017-May-22 20:30N 42°46' E 005°54'612.0
2017-May-22 20:00N 42°48' E 005°46'611.7
2017-May-22 19:30N 42°50' E 005°38'611.9
2017-May-22 19:00N 42°53' E 005°31'611.8
2017-May-22 18:30N 42°56' E 005°24'612.2
2017-May-22 18:00N 43°01' E 005°19'612.2
2017-May-22 17:30N 43°06' E 005°14'611.9
2017-May-22 17:00N 43°11' E 005°11'612.3
2017-May-22 16:30N 43°17' E 005°13'611.9
2017-May-22 16:00N 43°21' E 005°18'3 0.3
2017-May-22 07:00N 43°18' E 005°18'3 8.5 170 / 51019.010.8 18.016.319.0
2017-May-22 06:38N 43°21' E 005°20'0 1.1
2017-May-22 06:30N 43°21' E 005°19'4 7.9
2017-May-22 06:00N 43°19' E 005°15'3 5.4
2017-May-22 05:31N 43°17' E 005°12'5 8.3
2017-May-22 04:56N 43°13' E 005°08'512.0
2017-May-22 04:31N 43°09' E 005°04'812.8
2017-May-22 03:53N 43°03' E 004°57'512.6
2017-May-22 03:30N 42°59' E 004°53'712.7
2017-May-22 02:59N 42°54' E 004°47'613.5
2017-May-22 02:30N 42°49' E 004°42'713.5
2017-May-22 02:00N 42°44' E 004°36'713.3
2017-May-22 01:30N 42°38' E 004°30'3013.8
2017-May-21 23:20N 42°15' E 004°05'814.1
2017-May-21 22:46N 42°09' E 003°58'414.1
2017-May-21 22:29N 42°06' E 003°55'3014.1
2017-May-21 20:22N 41°43' E 003°28'813.9
2017-May-21 19:49N 41°38' E 003°21'513.8
2017-May-21 19:26N 41°35' E 003°15'613.7
2017-May-21 19:00N 41°31' E 003°09'713.6
2017-May-21 18:30N 41°28' E 003°01'813.7
2017-May-21 17:55N 41°25' E 002°51'1014.3
2017-May-21 17:15N 41°21' E 002°39'415.2
2017-May-21 17:00N 41°20' E 002°35'1317.6
2017-May-21 16:15N 41°16' E 002°18'415.5
2017-May-21 15:58N 41°14' E 002°13'8 0.6
2017-May-21 03:54N 41°22' E 002°11'1 1.6
2017-May-21 03:30N 41°21' E 002°10'4 4.9
2017-May-21 02:35N 41°17' E 002°12'113.1
2017-May-21 02:30N 41°16' E 002°13'713.3
2017-May-21 02:00N 41°16' E 002°22'714.2
2017-May-21 01:30N 41°16' E 002°31'714.8
2017-May-21 01:00N 41°16' E 002°41'917.2
2017-May-21 00:30N 41°16' E 002°53'918.1
2017-May-21 00:00N 41°16' E 003°05'917.9
2017-May-20 23:30N 41°17' E 003°17'917.5
2017-May-20 23:00N 41°18' E 003°28'916.9
2017-May-20 22:27N 41°17' E 003°41'1533.8
2017-May-20 22:00N 41°12' E 004°00'14616.9 240 / 111024.010.8 17.015.318.0
2017-May-20 13:20N 41°17' E 007°14'515.8
2017-May-20 13:00N 41°17' E 007°21'815.9
2017-May-20 12:30N 41°18' E 007°32'816.1
2017-May-20 11:59N 41°18' E 007°43'816.2
2017-May-20 11:28N 41°18' E 007°54'716.1
2017-May-20 11:00N 41°18' E 008°04'816.2
2017-May-20 10:30N 41°18' E 008°15'816.5
2017-May-20 09:59N 41°18' E 008°26'1016.5
2017-May-20 09:25N 41°18' E 008°39'716.5
2017-May-20 09:00N 41°18' E 008°48'916.1
2017-May-20 08:27N 41°18' E 008°60'715.7
2017-May-20 08:00N 41°18' E 009°09'714.6
2017-May-20 07:29N 41°20' E 009°19'715.4
2017-May-20 07:00N 41°22' E 009°28'816.0
2017-May-20 06:30N 41°22' E 009°39'816.3
2017-May-20 06:00N 41°22' E 009°50'816.1
2017-May-20 05:30N 41°20' E 010°00'816.4
2017-May-20 05:00N 41°18' E 010°11'816.4
2017-May-20 04:30N 41°16' E 010°21'816.6
2017-May-20 03:59N 41°14' E 010°32'816.7
2017-May-20 03:30N 41°12' E 010°43'5214.9
2017-May-20 00:00N 40°54' E 011°48'1620.6 270 / 321016.010.8 18.010.619.0
2017-May-19 23:13N 40°50' E 012°08'7417.4
2017-May-19 19:00N 40°30' E 013°42'9 0.5 170 / 211015.510.8 21.017.821.0
2017-May-19 01:37N 40°37' E 013°35'6316.5
2017-May-18 21:48N 41°04' E 012°19'620.5
2017-May-18 21:30N 41°09' E 012°15'1120.3
2017-May-18 20:58N 41°18' E 012°07'1020.3
2017-May-18 20:29N 41°26' E 012°00'1020.4
2017-May-18 19:59N 41°35' E 011°52'1220.2
2017-May-18 19:22N 41°45' E 011°43'819.6
2017-May-18 18:58N 41°52' E 011°41'1118.8
2017-May-18 18:24N 42°03' E 011°40'  
Track history (hours):
 
Tides and Currents Weather Stations Pressure Air Temp Water Temp Dewpoint Dewpoint Depression Visibility Wind Speed Wind Dir Waves Ship Positions

Freedom of the Seas

Last reported at 2017-May-28 06:30 UTC. Time now 2017-May-28 06:44 UTC.
Position N 41°22' E 002°11'.

Length 339 m; draft 9 m.

Type: Passenger vessel. MMSI: 309906000.

Date/timePositionNaut miles runAvg speedWind from/ knotsBaromVisibWave heightAir tempDewpointWater temp
2017-May-28 06:30N 41°22' E 002°11'0 0.0
2017-May-28 05:06N 41°22' E 002°11'0 0.0
2017-May-28 04:54N 41°22' E 002°11'0 0.0
2017-May-28 03:54N 41°22' E 002°11'0 0.6
2017-May-28 03:30N 41°21' E 002°10'2 2.9
2017-May-28 02:58N 41°20' E 002°10'4 8.7
2017-May-28 02:30N 41°16' E 002°13'611.7
2017-May-28 02:00N 41°16' E 002°20'612.6
2017-May-28 01:30N 41°16' E 002°29'713.5
2017-May-28 01:00N 41°16' E 002°38'714.0
2017-May-28 00:30N 41°16' E 002°47'714.4
2017-May-28 00:00N 41°16' E 002°57'714.4
2017-May-27 23:30N 41°16' E 003°06'714.5
2017-May-27 23:00N 41°16' E 003°16'714.4
2017-May-27 22:30N 41°17' E 003°25'714.4
2017-May-27 22:00N 41°17' E 003°35'714.3
2017-May-27 21:29N 41°17' E 003°45'714.2
2017-May-27 20:59N 41°17' E 003°54'914.7
2017-May-27 20:24N 41°17' E 004°06'2817.6
2017-May-27 18:49N 41°17' E 004°43'617.5
2017-May-27 18:30N 41°17' E 004°50'1117.4
2017-May-27 17:51N 41°17' E 005°05'617.4
2017-May-27 17:29N 41°17' E 005°14'1017.4
2017-May-27 16:55N 41°17' E 005°27'917.4
2017-May-27 16:23N 41°17' E 005°39'10717.2
2017-May-27 10:10N 41°18' E 008°02'317.4
2017-May-27 09:59N 41°18' E 008°06'1117.4
2017-May-27 09:21N 41°18' E 008°21'617.4
2017-May-27 09:00N 41°18' E 008°29'917.6
2017-May-27 08:30N 41°18' E 008°41'917.7
2017-May-27 07:58N 41°18' E 008°53'917.8
2017-May-27 07:27N 41°18' E 009°05'6815.3
2017-May-27 03:00N 41°12' E 010°36'68 1.4 260 / 91017.010.8 20.016.719.0
2017-May-25 03:23N 42°03' E 011°37'1412.6
2017-May-25 02:15N 42°06' E 011°18'617.1
2017-May-25 01:54N 42°07' E 011°10'920.7
2017-May-25 01:28N 42°10' E 010°59'1020.5
2017-May-25 01:00N 42°15' E 010°47'1120.4
2017-May-25 00:26N 42°22' E 010°35'920.4
2017-May-25 00:00N 42°28' E 010°27'1120.5
2017-May-24 23:28N 42°35' E 010°15'1020.2
2017-May-24 22:59N 42°41' E 010°05'919.7
2017-May-24 22:30N 42°46' E 009°54'1119.8
2017-May-24 21:56N 42°52' E 009°40'918.7
2017-May-24 21:26N 43°00' E 009°36'819.8
2017-May-24 21:00N 43°08' E 009°33'1019.8
2017-May-24 20:30N 43°18' E 009°30'1020.0
2017-May-24 20:01N 43°28' E 009°33'1019.7
2017-May-24 19:31N 43°37' E 009°38'1019.9
2017-May-24 19:01N 43°46' E 009°45'1020.0
2017-May-24 18:31N 43°55' E 009°51'816.0
2017-May-24 18:01N 44°03' E 009°52'1 1.6
2017-May-24 17:31N 44°03' E 009°52'3 6.2
2017-May-24 17:00N 44°06' E 009°50'0 0.1
2017-May-24 16:29N 44°06' E 009°50'0 0.0
2017-May-24 15:53N 44°06' E 009°50'0 0.0
2017-May-24 15:29N 44°06' E 009°50'0 0.0
2017-May-24 14:59N 44°06' E 009°50'0 0.0
2017-May-24 14:29N 44°06' E 009°50'0 0.0
2017-May-24 13:29N 44°06' E 009°50'0 0.0
2017-May-24 12:59N 44°06' E 009°50'0 0.0
2017-May-24 12:29N 44°06' E 009°50'0 0.0
2017-May-24 11:59N 44°06' E 009°50'0 0.0
2017-May-24 11:29N 44°06' E 009°50'0 0.0
2017-May-24 10:59N 44°06' E 009°50'0 0.0
2017-May-24 10:29N 44°06' E 009°50'0 0.0
2017-May-24 09:59N 44°06' E 009°50'0 0.0
2017-May-24 09:29N 44°06' E 009°50'0 0.0
2017-May-24 08:59N 44°06' E 009°50'0 0.0
2017-May-24 08:29N 44°06' E 009°50'0 0.0
2017-May-24 07:59N 44°06' E 009°50'0 0.0
2017-May-24 07:29N 44°06' E 009°50'0 0.0
2017-May-24 06:59N 44°06' E 009°50'0 0.0
2017-May-24 06:29N 44°06' E 009°50'0 0.0
2017-May-24 05:59N 44°06' E 009°50'0 0.0
2017-May-24 05:29N 44°06' E 009°50'0 0.0
2017-May-24 05:01N 44°06' E 009°50'2100.2
2017-May-24 05:00N 44°06' E 009°48'2 3.8 060 / 21019.010.8 16.014.319.0
2017-May-24 04:30N 44°06' E 009°51'3 6.7
2017-May-24 04:01N 44°03' E 009°52'4 8.6
2017-May-24 03:30N 43°59' E 009°55'612.4
2017-May-24 03:01N 43°58' E 009°47'611.5
2017-May-24 02:31N 43°55' E 009°40'611.7
2017-May-24 02:01N 43°53' E 009°32'612.0
2017-May-24 01:31N 43°51' E 009°25'612.1
2017-May-24 01:00N 43°49' E 009°17'611.7
2017-May-24 00:31N 43°47' E 009°09'611.6
2017-May-24 00:00N 43°45' E 009°01'612.0
2017-May-23 23:31N 43°44' E 008°53'611.8
2017-May-23 23:01N 43°42' E 008°46'611.7
2017-May-23 22:30N 43°40' E 008°38'611.6
2017-May-23 22:01N 43°39' E 008°30'611.9
2017-May-23 21:31N 43°37' E 008°22'611.8
2017-May-23 21:01N 43°36' E 008°14'611.8
2017-May-23 20:31N 43°35' E 008°06'611.8
2017-May-23 20:01N 43°34' E 007°58'611.7
2017-May-23 19:30N 43°32' E 007°50'611.4
2017-May-23 19:01N 43°32' E 007°43'611.7
2017-May-23 18:31N 43°34' E 007°35'611.9
2017-May-23 18:00N 43°36' E 007°28'612.0
2017-May-23 17:31N 43°39' E 007°20'3 0.3
2017-May-23 06:00N 43°36' E 007°18'5 5.8 110 / 41018.010.8 19.015.719.0
2017-May-23 05:04N 43°41' E 007°19'0 0.3
2017-May-23 04:58N 43°41' E 007°19'1 2.2
2017-May-23 04:30N 43°40' E 007°18'511.2
2017-May-23 04:00N 43°35' E 007°17'612.2
2017-May-23 03:30N 43°29' E 007°16'612.2
2017-May-23 03:00N 43°23' E 007°14'612.1
2017-May-23 02:30N 43°17' E 007°13'612.1
2017-May-23 02:00N 43°12' E 007°08'612.4
2017-May-23 01:30N 43°07' E 007°03'612.3
2017-May-23 01:00N 43°02' E 006°58'612.1
2017-May-23 00:30N 42°57' E 006°53'611.9
2017-May-22 23:59N 42°53' E 006°47'611.9
2017-May-22 23:28N 42°48' E 006°41'612.2
2017-May-22 23:00N 42°46' E 006°34'612.2
2017-May-22 22:30N 42°44' E 006°27'612.2
2017-May-22 22:00N 42°44' E 006°18'612.2
2017-May-22 21:30N 42°45' E 006°10'612.3
2017-May-22 21:00N 42°45' E 006°02'612.3
2017-May-22 20:30N 42°46' E 005°54'612.0
2017-May-22 20:00N 42°48' E 005°46'611.7
2017-May-22 19:30N 42°50' E 005°38'611.9
2017-May-22 19:00N 42°53' E 005°31'611.8
2017-May-22 18:30N 42°56' E 005°24'612.2
2017-May-22 18:00N 43°01' E 005°19'612.2
2017-May-22 17:30N 43°06' E 005°14'611.9
2017-May-22 17:00N 43°11' E 005°11'612.3
2017-May-22 16:30N 43°17' E 005°13'611.9
2017-May-22 16:00N 43°21' E 005°18'3 0.3
2017-May-22 07:00N 43°18' E 005°18'3 8.5 170 / 51019.010.8 18.016.319.0
2017-May-22 06:38N 43°21' E 005°20'0 1.1
2017-May-22 06:30N 43°21' E 005°19'4 7.9
2017-May-22 06:00N 43°19' E 005°15'3 5.4
2017-May-22 05:31N 43°17' E 005°12'5 8.3
2017-May-22 04:56N 43°13' E 005°08'512.0
2017-May-22 04:31N 43°09' E 005°04'812.8
2017-May-22 03:53N 43°03' E 004°57'512.6
2017-May-22 03:30N 42°59' E 004°53'712.7
2017-May-22 02:59N 42°54' E 004°47'613.5
2017-May-22 02:30N 42°49' E 004°42'713.5
2017-May-22 02:00N 42°44' E 004°36'713.3
2017-May-22 01:30N 42°38' E 004°30'3013.8
2017-May-21 23:20N 42°15' E 004°05'814.1
2017-May-21 22:46N 42°09' E 003°58'414.1
2017-May-21 22:29N 42°06' E 003°55'3014.1
2017-May-21 20:22N 41°43' E 003°28'813.9
2017-May-21 19:49N 41°38' E 003°21'513.8
2017-May-21 19:26N 41°35' E 003°15'613.7
2017-May-21 19:00N 41°31' E 003°09'713.6
2017-May-21 18:30N 41°28' E 003°01'813.7
2017-May-21 17:55N 41°25' E 002°51'1014.3
2017-May-21 17:15N 41°21' E 002°39'415.2
2017-May-21 17:00N 41°20' E 002°35'1317.6
2017-May-21 16:15N 41°16' E 002°18'415.5
2017-May-21 15:58N 41°14' E 002°13'8 0.6
2017-May-21 03:54N 41°22' E 002°11'1 1.6
2017-May-21 03:30N 41°21' E 002°10'4 4.9
2017-May-21 02:35N 41°17' E 002°12'113.1
2017-May-21 02:30N 41°16' E 002°13'713.3
2017-May-21 02:00N 41°16' E 002°22'714.2
2017-May-21 01:30N 41°16' E 002°31'714.8
2017-May-21 01:00N 41°16' E 002°41'917.2
2017-May-21 00:30N 41°16' E 002°53'918.1
2017-May-21 00:00N 41°16' E 003°05'917.9
2017-May-20 23:30N 41°17' E 003°17'917.5
2017-May-20 23:00N 41°18' E 003°28'916.9
2017-May-20 22:27N 41°17' E 003°41'1533.8
2017-May-20 22:00N 41°12' E 004°00'14616.9 240 / 111024.010.8 17.015.318.0
2017-May-20 13:20N 41°17' E 007°14'515.8
2017-May-20 13:00N 41°17' E 007°21'815.9
2017-May-20 12:30N 41°18' E 007°32'816.1
2017-May-20 11:59N 41°18' E 007°43'816.2
2017-May-20 11:28N 41°18' E 007°54'716.1
2017-May-20 11:00N 41°18' E 008°04'816.2
2017-May-20 10:30N 41°18' E 008°15'816.5
2017-May-20 09:59N 41°18' E 008°26'1016.5
2017-May-20 09:25N 41°18' E 008°39'716.5
2017-May-20 09:00N 41°18' E 008°48'916.1
2017-May-20 08:27N 41°18' E 008°60'715.7
2017-May-20 08:00N 41°18' E 009°09'714.6
2017-May-20 07:29N 41°20' E 009°19'715.4
2017-May-20 07:00N 41°22' E 009°28'816.0
2017-May-20 06:30N 41°22' E 009°39'816.3
2017-May-20 06:00N 41°22' E 009°50'816.1
2017-May-20 05:30N 41°20' E 010°00'816.4
2017-May-20 05:00N 41°18' E 010°11'816.4
2017-May-20 04:30N 41°16' E 010°21'816.6
2017-May-20 03:59N 41°14' E 010°32'816.7
2017-May-20 03:30N 41°12' E 010°43'5214.9
2017-May-20 00:00N 40°54' E 011°48'1620.6 270 / 321016.010.8 18.010.619.0
2017-May-19 23:13N 40°50' E 012°08'7417.4
2017-May-19 19:00N 40°30' E 013°42'9 0.5 170 / 211015.510.8 21.017.821.0
2017-May-19 01:37N 40°37' E 013°35'6316.5
2017-May-18 21:48N 41°04' E 012°19'620.5
2017-May-18 21:30N 41°09' E 012°15'1120.3
2017-May-18 20:58N 41°18' E 012°07'1020.3
2017-May-18 20:29N 41°26' E 012°00'1020.4
2017-May-18 19:59N 41°35' E 011°52'1220.2
2017-May-18 19:22N 41°45' E 011°43'819.6
2017-May-18 18:58N 41°52' E 011°41'1118.8
2017-May-18 18:24N 42°03' E 011°40'  

Dump ship's entire track history